sensor_id;sensor_type;location;lat;lon;timestamp;temperature;humidity
37285;DHT22;23172;53.550;9.964;2023-06-14T00:04:40;21.10;54.20
37285;DHT22;23172;53.550;9.964;2023-06-14T00:09:42;21.00;54.40
37285;DHT22;23172;53.550;9.964;2023-06-14T00:14:45;21.00;55.00
37285;DHT22;23172;53.550;9.964;2023-06-14T00:19:47;21.00;54.50
37285;DHT22;23172;53.550;9.964;2023-06-14T00:24:50;20.90;54.60
37285;DHT22;23172;53.550;9.964;2023-06-14T00:29:53;20.80;54.90
37285;DHT22;23172;53.550;9.964;2023-06-14T00:34:55;20.70;55.00
37285;DHT22;23172;53.550;9.964;2023-06-14T00:39:57;20.80;54.80
37285;DHT22;23172;53.550;9.964;2023-06-14T00:45:00;20.80;54.70
37285;DHT22;23172;53.550;9.964;2023-06-14T00:50:02;20.70;55.00
37285;DHT22;23172;53.550;9.964;2023-06-14T00:55:05;20.60;55.30
37285;DHT22;23172;53.550;9.964;2023-06-14T01:00:10;20.60;55.40
37285;DHT22;23172;53.550;9.964;2023-06-14T01:05:12;20.60;55.50
37285;DHT22;23172;53.550;9.964;2023-06-14T01:10:29;20.50;55.60
37285;DHT22;23172;53.550;9.964;2023-06-14T01:15:36;20.50;55.60
37285;DHT22;23172;53.550;9.964;2023-06-14T01:20:39;20.40;55.90
37285;DHT22;23172;53.550;9.964;2023-06-14T01:25:43;20.30;56.20
37285;DHT22;23172;53.550;9.964;2023-06-14T01:30:47;20.30;56.30
37285;DHT22;23172;53.550;9.964;2023-06-14T01:35:51;20.30;56.40
37285;DHT22;23172;53.550;9.964;2023-06-14T01:40:56;20.30;56.30
37285;DHT22;23172;53.550;9.964;2023-06-14T01:46:00;20.40;56.20
37285;DHT22;23172;53.550;9.964;2023-06-14T01:51:02;20.30;56.20
37285;DHT22;23172;53.550;9.964;2023-06-14T01:56:05;20.30;56.40
37285;DHT22;23172;53.550;9.964;2023-06-14T02:01:07;20.30;56.40
37285;DHT22;23172;53.550;9.964;2023-06-14T02:06:09;20.20;56.70
37285;DHT22;23172;53.550;9.964;2023-06-14T02:11:14;20.20;56.80
37285;DHT22;23172;53.550;9.964;2023-06-14T02:16:16;20.20;57.40
37285;DHT22;23172;53.550;9.964;2023-06-14T02:21:18;20.20;56.90
37285;DHT22;23172;53.550;9.964;2023-06-14T02:26:21;20.10;57.30
37285;DHT22;23172;53.550;9.964;2023-06-14T02:31:24;20.10;57.30
37285;DHT22;23172;53.550;9.964;2023-06-14T02:36:26;20.00;57.30
37285;DHT22;23172;53.550;9.964;2023-06-14T02:41:29;20.00;57.50
37285;DHT22;23172;53.550;9.964;2023-06-14T02:46:31;20.00;57.50
37285;DHT22;23172;53.550;9.964;2023-06-14T02:51:32;19.90;57.60
37285;DHT22;23172;53.550;9.964;2023-06-14T02:56:36;19.90;57.90
37285;DHT22;23172;53.550;9.964;2023-06-14T03:01:38;19.80;58.10
37285;DHT22;23172;53.550;9.964;2023-06-14T03:06:41;19.80;58.20
37285;DHT22;23172;53.550;9.964;2023-06-14T03:11:46;19.70;58.50
37285;DHT22;23172;53.550;9.964;2023-06-14T03:16:47;19.60;58.70
37285;DHT22;23172;53.550;9.964;2023-06-14T03:21:51;19.70;58.80
37285;DHT22;23172;53.550;9.964;2023-06-14T03:26:54;19.70;58.70
37285;DHT22;23172;53.550;9.964;2023-06-14T03:31:59;19.70;58.90
37285;DHT22;23172;53.550;9.964;2023-06-14T03:37:00;19.60;59.00
37285;DHT22;23172;53.550;9.964;2023-06-14T03:42:04;19.60;59.20
37285;DHT22;23172;53.550;9.964;2023-06-14T03:47:07;19.60;59.40
37285;DHT22;23172;53.550;9.964;2023-06-14T03:52:09;19.60;59.50
37285;DHT22;23172;53.550;9.964;2023-06-14T03:57:12;19.60;59.70
37285;DHT22;23172;53.550;9.964;2023-06-14T04:02:14;19.60;59.60
37285;DHT22;23172;53.550;9.964;2023-06-14T04:07:16;19.60;59.60
37285;DHT22;23172;53.550;9.964;2023-06-14T04:12:21;19.70;59.60
37285;DHT22;23172;53.550;9.964;2023-06-14T04:17:23;19.60;60.70
37285;DHT22;23172;53.550;9.964;2023-06-14T04:22:24;19.70;60.00
37285;DHT22;23172;53.550;9.964;2023-06-14T04:27:30;19.70;60.00
37285;DHT22;23172;53.550;9.964;2023-06-14T04:32:36;19.70;60.10
37285;DHT22;23172;53.550;9.964;2023-06-14T04:37:39;19.70;60.30
37285;DHT22;23172;53.550;9.964;2023-06-14T04:42:43;19.70;60.10
37285;DHT22;23172;53.550;9.964;2023-06-14T04:47:45;19.80;60.90
37285;DHT22;23172;53.550;9.964;2023-06-14T04:52:47;19.90;60.90
37285;DHT22;23172;53.550;9.964;2023-06-14T04:57:53;19.90;60.00
37285;DHT22;23172;53.550;9.964;2023-06-14T05:02:55;19.80;60.20
37285;DHT22;23172;53.550;9.964;2023-06-14T05:07:57;19.90;60.70
37285;DHT22;23172;53.550;9.964;2023-06-14T05:13:00;20.10;59.70
37285;DHT22;23172;53.550;9.964;2023-06-14T05:18:02;20.10;59.60
37285;DHT22;23172;53.550;9.964;2023-06-14T05:23:04;20.20;59.40
37285;DHT22;23172;53.550;9.964;2023-06-14T05:28:08;20.30;59.00
37285;DHT22;23172;53.550;9.964;2023-06-14T05:33:10;20.30;58.90
37285;DHT22;23172;53.550;9.964;2023-06-14T05:38:11;20.40;58.80
37285;DHT22;23172;53.550;9.964;2023-06-14T05:43:15;20.40;58.70
37285;DHT22;23172;53.550;9.964;2023-06-14T05:48:16;20.50;59.10
37285;DHT22;23172;53.550;9.964;2023-06-14T05:53:18;20.70;58.10
37285;DHT22;23172;53.550;9.964;2023-06-14T05:58:22;20.80;57.60
37285;DHT22;23172;53.550;9.964;2023-06-14T06:03:23;20.90;57.40
37285;DHT22;23172;53.550;9.964;2023-06-14T06:08:26;21.00;56.90
37285;DHT22;23172;53.550;9.964;2023-06-14T06:13:29;21.00;56.60
37285;DHT22;23172;53.550;9.964;2023-06-14T06:18:31;21.00;56.40
37285;DHT22;23172;53.550;9.964;2023-06-14T06:23:33;21.10;56.30
37285;DHT22;23172;53.550;9.964;2023-06-14T06:28:36;21.20;56.10
37285;DHT22;23172;53.550;9.964;2023-06-14T06:33:38;21.30;55.70
37285;DHT22;23172;53.550;9.964;2023-06-14T06:38:41;21.40;55.40
37285;DHT22;23172;53.550;9.964;2023-06-14T06:43:44;21.70;54.90
37285;DHT22;23172;53.550;9.964;2023-06-14T06:48:46;22.20;53.90
37285;DHT22;23172;53.550;9.964;2023-06-14T06:53:52;22.80;52.80
37285;DHT22;23172;53.550;9.964;2023-06-14T06:58:55;23.20;51.50
37285;DHT22;23172;53.550;9.964;2023-06-14T07:03:57;23.20;50.90
37285;DHT22;23172;53.550;9.964;2023-06-14T07:09:00;23.00;51.10
37285;DHT22;23172;53.550;9.964;2023-06-14T07:14:03;23.20;50.60
37285;DHT22;23172;53.550;9.964;2023-06-14T07:19:05;23.10;50.10
37285;DHT22;23172;53.550;9.964;2023-06-14T07:24:07;23.10;49.80
37285;DHT22;23172;53.550;9.964;2023-06-14T07:29:10;23.00;49.80
37285;DHT22;23172;53.550;9.964;2023-06-14T07:34:12;23.00;49.30
37285;DHT22;23172;53.550;9.964;2023-06-14T07:39:14;23.10;49.40
37285;DHT22;23172;53.550;9.964;2023-06-14T07:44:17;23.20;49.20
37285;DHT22;23172;53.550;9.964;2023-06-14T07:49:19;23.10;49.10
37285;DHT22;23172;53.550;9.964;2023-06-14T07:54:21;23.20;48.70
37285;DHT22;23172;53.550;9.964;2023-06-14T07:59:27;23.30;48.40
37285;DHT22;23172;53.550;9.964;2023-06-14T08:04:29;23.50;47.90
37285;DHT22;23172;53.550;9.964;2023-06-14T08:09:31;26.20;46.40
37285;DHT22;23172;53.550;9.964;2023-06-14T08:14:34;33.90;37.60
37285;DHT22;23172;53.550;9.964;2023-06-14T08:19:36;39.50;31.20
37285;DHT22;23172;53.550;9.964;2023-06-14T08:24:38;42.70;27.80
37285;DHT22;23172;53.550;9.964;2023-06-14T08:29:42;44.70;25.80
37285;DHT22;23172;53.550;9.964;2023-06-14T08:34:44;46.30;23.60
37285;DHT22;23172;53.550;9.964;2023-06-14T08:39:46;47.30;22.30
37285;DHT22;23172;53.550;9.964;2023-06-14T08:44:49;48.40;21.00
37285;DHT22;23172;53.550;9.964;2023-06-14T08:49:51;49.10;20.30
37285;DHT22;23172;53.550;9.964;2023-06-14T08:54:56;49.20;19.30
37285;DHT22;23172;53.550;9.964;2023-06-14T09:00:00;49.20;19.10
37285;DHT22;23172;53.550;9.964;2023-06-14T09:05:10;49.30;18.60
37285;DHT22;23172;53.550;9.964;2023-06-14T09:10:15;49.10;18.50
37285;DHT22;23172;53.550;9.964;2023-06-14T09:15:19;49.40;18.00
37285;DHT22;23172;53.550;9.964;2023-06-14T09:20:21;49.10;17.90
37285;DHT22;23172;53.550;9.964;2023-06-14T09:25:23;48.70;17.90
37285;DHT22;23172;53.550;9.964;2023-06-14T09:30:27;48.60;17.80
37285;DHT22;23172;53.550;9.964;2023-06-14T09:35:31;48.30;17.70
37285;DHT22;23172;53.550;9.964;2023-06-14T09:40:34;48.40;17.80
37285;DHT22;23172;53.550;9.964;2023-06-14T09:45:39;48.30;17.80
37285;DHT22;23172;53.550;9.964;2023-06-14T09:50:41;48.10;17.80
37285;DHT22;23172;53.550;9.964;2023-06-14T09:55:44;47.80;17.90
37285;DHT22;23172;53.550;9.964;2023-06-14T10:00:50;46.90;18.30
37285;DHT22;23172;53.550;9.964;2023-06-14T10:05:53;44.00;19.60
37285;DHT22;23172;53.550;9.964;2023-06-14T10:10:56;42.60;20.60
37285;DHT22;23172;53.550;9.964;2023-06-14T10:16:05;42.70;20.50
37285;DHT22;23172;53.550;9.964;2023-06-14T10:21:15;41.40;21.20
37285;DHT22;23172;53.550;9.964;2023-06-14T10:26:23;39.60;22.50
37285;DHT22;23172;53.550;9.964;2023-06-14T10:31:42;38.30;23.30
37285;DHT22;23172;53.550;9.964;2023-06-14T10:36:44;38.30;23.50
37285;DHT22;23172;53.550;9.964;2023-06-14T10:41:53;38.20;23.40
37285;DHT22;23172;53.550;9.964;2023-06-14T10:46:59;38.30;23.60
37285;DHT22;23172;53.550;9.964;2023-06-14T10:52:03;36.90;24.50
37285;DHT22;23172;53.550;9.964;2023-06-14T10:57:07;36.60;25.00
37285;DHT22;23172;53.550;9.964;2023-06-14T11:02:27;36.40;24.90
37285;DHT22;23172;53.550;9.964;2023-06-14T11:07:48;36.20;25.10
37285;DHT22;23172;53.550;9.964;2023-06-14T11:12:55;36.80;24.50
37285;DHT22;23172;53.550;9.964;2023-06-14T11:18:00;36.60;25.10
37285;DHT22;23172;53.550;9.964;2023-06-14T11:23:03;36.00;25.20
37285;DHT22;23172;53.550;9.964;2023-06-14T11:28:05;36.10;25.30
37285;DHT22;23172;53.550;9.964;2023-06-14T11:33:09;35.20;25.90
37285;DHT22;23172;53.550;9.964;2023-06-14T11:38:12;34.40;26.80
37285;DHT22;23172;53.550;9.964;2023-06-14T11:43:14;34.80;26.60
37285;DHT22;23172;53.550;9.964;2023-06-14T11:48:17;34.50;26.70
37285;DHT22;23172;53.550;9.964;2023-06-14T11:53:19;34.50;26.70
37285;DHT22;23172;53.550;9.964;2023-06-14T11:58:21;34.40;26.90
37285;DHT22;23172;53.550;9.964;2023-06-14T12:03:24;33.70;27.40
37285;DHT22;23172;53.550;9.964;2023-06-14T12:08:32;33.00;28.10
37285;DHT22;23172;53.550;9.964;2023-06-14T12:13:39;32.70;28.80
37285;DHT22;23172;53.550;9.964;2023-06-14T12:18:42;32.20;29.20
37285;DHT22;23172;53.550;9.964;2023-06-14T12:23:47;32.00;29.40
37285;DHT22;23172;53.550;9.964;2023-06-14T12:28:49;32.00;29.60
37285;DHT22;23172;53.550;9.964;2023-06-14T12:33:52;32.80;29.10
37285;DHT22;23172;53.550;9.964;2023-06-14T12:38:54;33.40;28.50
37285;DHT22;23172;53.550;9.964;2023-06-14T12:43:56;32.90;28.90
37285;DHT22;23172;53.550;9.964;2023-06-14T12:49:01;33.20;28.80
37285;DHT22;23172;53.550;9.964;2023-06-14T12:54:03;33.90;28.20
37285;DHT22;23172;53.550;9.964;2023-06-14T12:59:05;33.20;28.70
37285;DHT22;23172;53.550;9.964;2023-06-14T13:04:09;32.60;29.20
37285;DHT22;23172;53.550;9.964;2023-06-14T13:09:11;32.60;29.00
37285;DHT22;23172;53.550;9.964;2023-06-14T13:14:13;33.20;28.40
37285;DHT22;23172;53.550;9.964;2023-06-14T13:19:17;34.00;28.20
37285;DHT22;23172;53.550;9.964;2023-06-14T13:24:19;34.00;28.10
37285;DHT22;23172;53.550;9.964;2023-06-14T13:29:21;33.40;28.50
37285;DHT22;23172;53.550;9.964;2023-06-14T13:34:24;33.70;28.30
37285;DHT22;23172;53.550;9.964;2023-06-14T13:39:26;33.40;28.40
37285;DHT22;23172;53.550;9.964;2023-06-14T13:44:28;33.70;28.20
37285;DHT22;23172;53.550;9.964;2023-06-14T13:49:31;34.10;28.00
37285;DHT22;23172;53.550;9.964;2023-06-14T13:54:35;33.90;27.70
37285;DHT22;23172;53.550;9.964;2023-06-14T13:59:37;33.90;27.30
37285;DHT22;23172;53.550;9.964;2023-06-14T14:04:40;33.90;28.20
37285;DHT22;23172;53.550;9.964;2023-06-14T14:09:42;34.40;27.40
37285;DHT22;23172;53.550;9.964;2023-06-14T14:14:44;34.70;27.20
37285;DHT22;23172;53.550;9.964;2023-06-14T14:19:48;34.20;27.30
37285;DHT22;23172;53.550;9.964;2023-06-14T14:24:50;34.20;27.40
37285;DHT22;23172;53.550;9.964;2023-06-14T14:29:51;34.40;27.10
37285;DHT22;23172;53.550;9.964;2023-06-14T14:34:54;34.50;26.90
37285;DHT22;23172;53.550;9.964;2023-06-14T14:39:56;34.40;26.90
37285;DHT22;23172;53.550;9.964;2023-06-14T14:44:58;34.40;26.90
37285;DHT22;23172;53.550;9.964;2023-06-14T14:50:01;34.00;27.30
37285;DHT22;23172;53.550;9.964;2023-06-14T14:55:04;33.90;27.40
37285;DHT22;23172;53.550;9.964;2023-06-14T15:00:07;33.70;27.40
37285;DHT22;23172;53.550;9.964;2023-06-14T15:05:11;33.50;27.60
37285;DHT22;23172;53.550;9.964;2023-06-14T15:10:13;33.50;27.50
37285;DHT22;23172;53.550;9.964;2023-06-14T15:15:15;33.40;27.60
37285;DHT22;23172;53.550;9.964;2023-06-14T15:20:19;33.20;27.60
37285;DHT22;23172;53.550;9.964;2023-06-14T15:25:20;32.50;28.00
37285;DHT22;23172;53.550;9.964;2023-06-14T15:30:23;32.00;28.50
37285;DHT22;23172;53.550;9.964;2023-06-14T15:35:26;31.90;28.50
37285;DHT22;23172;53.550;9.964;2023-06-14T15:40:28;31.80;28.50
37285;DHT22;23172;53.550;9.964;2023-06-14T15:45:30;31.70;28.60
37285;DHT22;23172;53.550;9.964;2023-06-14T15:50:33;31.40;29.00
37285;DHT22;23172;53.550;9.964;2023-06-14T15:55:36;31.20;29.10
37285;DHT22;23172;53.550;9.964;2023-06-14T16:00:38;30.80;29.30
37285;DHT22;23172;53.550;9.964;2023-06-14T16:05:41;30.50;29.50
37285;DHT22;23172;53.550;9.964;2023-06-14T16:10:43;30.30;30.20
37285;DHT22;23172;53.550;9.964;2023-06-14T16:15:45;30.10;30.00
37285;DHT22;23172;53.550;9.964;2023-06-14T16:20:48;30.00;30.20
37285;DHT22;23172;53.550;9.964;2023-06-14T16:25:50;29.90;30.30
37285;DHT22;23172;53.550;9.964;2023-06-14T16:30:52;29.70;30.60
37285;DHT22;23172;53.550;9.964;2023-06-14T16:35:55;29.40;30.90
37285;DHT22;23172;53.550;9.964;2023-06-14T16:40:58;29.10;31.20
37285;DHT22;23172;53.550;9.964;2023-06-14T16:46:00;28.90;31.40
37285;DHT22;23172;53.550;9.964;2023-06-14T16:51:03;28.80;31.50
37285;DHT22;23172;53.550;9.964;2023-06-14T16:56:05;28.80;31.60
37285;DHT22;23172;53.550;9.964;2023-06-14T17:01:07;28.70;31.60
37285;DHT22;23172;53.550;9.964;2023-06-14T17:06:10;28.60;32.40
37285;DHT22;23172;53.550;9.964;2023-06-14T17:11:12;28.40;32.00
37285;DHT22;23172;53.550;9.964;2023-06-14T17:16:15;28.20;32.20
37285;DHT22;23172;53.550;9.964;2023-06-14T17:21:19;28.10;32.20
37285;DHT22;23172;53.550;9.964;2023-06-14T17:26:21;27.90;32.20
37285;DHT22;23172;53.550;9.964;2023-06-14T17:31:23;27.80;32.20
37285;DHT22;23172;53.550;9.964;2023-06-14T17:36:26;27.70;32.20
37285;DHT22;23172;53.550;9.964;2023-06-14T17:41:28;27.50;32.40
37285;DHT22;23172;53.550;9.964;2023-06-14T17:46:30;27.50;32.40
37285;DHT22;23172;53.550;9.964;2023-06-14T17:51:33;27.30;32.40
37285;DHT22;23172;53.550;9.964;2023-06-14T17:56:35;27.20;32.40
37285;DHT22;23172;53.550;9.964;2023-06-14T18:01:37;27.20;32.40
37285;DHT22;23172;53.550;9.964;2023-06-14T18:06:40;27.10;32.10
37285;DHT22;23172;53.550;9.964;2023-06-14T18:11:42;27.00;32.50
37285;DHT22;23172;53.550;9.964;2023-06-14T18:16:44;26.90;31.60
37285;DHT22;23172;53.550;9.964;2023-06-14T18:21:47;26.80;31.60
37285;DHT22;23172;53.550;9.964;2023-06-14T18:26:49;26.70;31.60
37285;DHT22;23172;53.550;9.964;2023-06-14T18:31:52;26.60;31.50
37285;DHT22;23172;53.550;9.964;2023-06-14T18:36:55;26.50;31.60
37285;DHT22;23172;53.550;9.964;2023-06-14T18:41:58;26.40;31.70
37285;DHT22;23172;53.550;9.964;2023-06-14T18:47:00;26.30;31.80
37285;DHT22;23172;53.550;9.964;2023-06-14T18:52:04;26.30;31.90
37285;DHT22;23172;53.550;9.964;2023-06-14T18:57:06;26.10;32.00
37285;DHT22;23172;53.550;9.964;2023-06-14T19:02:09;26.50;31.80
37285;DHT22;23172;53.550;9.964;2023-06-14T19:07:13;26.20;32.20
37285;DHT22;23172;53.550;9.964;2023-06-14T19:12:15;26.00;32.50
37285;DHT22;23172;53.550;9.964;2023-06-14T19:17:17;25.80;32.60
37285;DHT22;23172;53.550;9.964;2023-06-14T19:22:20;25.70;32.80
37285;DHT22;23172;53.550;9.964;2023-06-14T19:27:22;25.60;32.90
37285;DHT22;23172;53.550;9.964;2023-06-14T19:32:23;25.60;33.00
37285;DHT22;23172;53.550;9.964;2023-06-14T19:37:27;25.40;33.10
37285;DHT22;23172;53.550;9.964;2023-06-14T19:42:28;25.40;33.30
37285;DHT22;23172;53.550;9.964;2023-06-14T19:47:30;25.30;33.30
37285;DHT22;23172;53.550;9.964;2023-06-14T19:52:35;25.20;33.50
37285;DHT22;23172;53.550;9.964;2023-06-14T19:57:37;25.00;33.80
37285;DHT22;23172;53.550;9.964;2023-06-14T20:02:39;25.00;34.00
37285;DHT22;23172;53.550;9.964;2023-06-14T20:07:42;24.90;34.20
37285;DHT22;23172;53.550;9.964;2023-06-14T20:12:44;24.80;34.80
37285;DHT22;23172;53.550;9.964;2023-06-14T20:17:46;24.50;35.20
37285;DHT22;23172;53.550;9.964;2023-06-14T20:22:49;24.40;35.70
37285;DHT22;23172;53.550;9.964;2023-06-14T20:27:51;24.20;36.00
37285;DHT22;23172;53.550;9.964;2023-06-14T20:32:53;24.10;36.30
37285;DHT22;23172;53.550;9.964;2023-06-14T20:37:56;24.00;36.80
37285;DHT22;23172;53.550;9.964;2023-06-14T20:42:58;23.90;37.00
37285;DHT22;23172;53.550;9.964;2023-06-14T20:48:04;23.80;37.20
37285;DHT22;23172;53.550;9.964;2023-06-14T20:53:07;23.70;37.40
37285;DHT22;23172;53.550;9.964;2023-06-14T20:58:09;23.60;37.60
37285;DHT22;23172;53.550;9.964;2023-06-14T21:03:11;23.50;37.80
37285;DHT22;23172;53.550;9.964;2023-06-14T21:08:14;23.40;38.10
37285;DHT22;23172;53.550;9.964;2023-06-14T21:13:16;23.40;38.30
37285;DHT22;23172;53.550;9.964;2023-06-14T21:18:18;23.30;38.60
37285;DHT22;23172;53.550;9.964;2023-06-14T21:23:21;23.20;38.80
37285;DHT22;23172;53.550;9.964;2023-06-14T21:28:23;23.10;38.90
37285;DHT22;23172;53.550;9.964;2023-06-14T21:33:25;23.00;39.90
37285;DHT22;23172;53.550;9.964;2023-06-14T21:38:28;22.90;39.40
37285;DHT22;23172;53.550;9.964;2023-06-14T21:43:30;22.80;39.60
37285;DHT22;23172;53.550;9.964;2023-06-14T21:48:32;22.80;39.80
37285;DHT22;23172;53.550;9.964;2023-06-14T21:53:35;22.70;40.00
37285;DHT22;23172;53.550;9.964;2023-06-14T21:58:37;22.80;39.90
37285;DHT22;23172;53.550;9.964;2023-06-14T22:03:39;22.80;40.00
37285;DHT22;23172;53.550;9.964;2023-06-14T22:08:43;22.80;40.20
37285;DHT22;23172;53.550;9.964;2023-06-14T22:13:44;22.70;40.40
37285;DHT22;23172;53.550;9.964;2023-06-14T22:18:49;22.70;40.60
37285;DHT22;23172;53.550;9.964;2023-06-14T22:23:52;22.60;40.90
37285;DHT22;23172;53.550;9.964;2023-06-14T22:28:54;22.60;41.40
37285;DHT22;23172;53.550;9.964;2023-06-14T22:33:56;22.50;41.70
37285;DHT22;23172;53.550;9.964;2023-06-14T22:38:59;22.40;41.90
37285;DHT22;23172;53.550;9.964;2023-06-14T22:44:04;22.40;42.30
37285;DHT22;23172;53.550;9.964;2023-06-14T22:49:06;22.30;42.70
37285;DHT22;23172;53.550;9.964;2023-06-14T22:54:09;22.30;43.10
37285;DHT22;23172;53.550;9.964;2023-06-14T22:59:11;22.20;43.50
37285;DHT22;23172;53.550;9.964;2023-06-14T23:04:13;22.20;43.90
37285;DHT22;23172;53.550;9.964;2023-06-14T23:09:16;22.00;44.30
37285;DHT22;23172;53.550;9.964;2023-06-14T23:14:18;22.00;44.80
37285;DHT22;23172;53.550;9.964;2023-06-14T23:19:21;22.00;45.10
37285;DHT22;23172;53.550;9.964;2023-06-14T23:24:25;21.90;45.40
37285;DHT22;23172;53.550;9.964;2023-06-14T23:29:27;21.80;45.80
37285;DHT22;23172;53.550;9.964;2023-06-14T23:34:30;21.80;46.20
37285;DHT22;23172;53.550;9.964;2023-06-14T23:39:35;21.70;46.40
37285;DHT22;23172;53.550;9.964;2023-06-14T23:44:48;21.60;46.70
37285;DHT22;23172;53.550;9.964;2023-06-14T23:49:52;21.60;47.00
37285;DHT22;23172;53.550;9.964;2023-06-14T23:54:55;21.50;47.50
37285;DHT22;23172;53.550;9.964;2023-06-14T23:59:57;21.40;47.80
